createdAt,value
2022-09-09T00:01:53.705Z,99123.31
2022-09-09T00:04:27.497Z,99122.19
2022-09-09T00:07:04.447Z,99125.97
2022-09-09T00:09:33.008Z,99124.59
2022-09-09T00:12:04.336Z,99123.25
2022-09-09T00:14:36.804Z,99121.88
2022-09-09T00:17:05.847Z,99115.03
2022-09-09T00:19:35.462Z,99118.78
2022-09-09T00:22:11.167Z,99081.47
2022-09-09T00:24:40.771Z,99084.88
2022-09-09T00:27:09.309Z,99113.56
2022-09-09T00:29:41.007Z,99075.47
2022-09-09T00:32:13.759Z,99086.75
2022-09-09T00:34:50.739Z,99105.50
2022-09-09T00:37:20.557Z,99103.09
2022-09-09T00:39:49.041Z,99094.28
2022-09-09T00:42:18.475Z,99098.03
2022-09-09T00:44:54.227Z,99105.25
2022-09-09T00:47:43.850Z,99101.75
2022-09-09T00:50:41.839Z,99106.25
2022-09-09T00:53:19.352Z,99101.69
2022-09-09T00:55:48.933Z,99100.25
2022-09-09T00:58:16.689Z,99098.41
2022-09-09T01:00:45.412Z,99067.56
2022-09-09T01:03:25.509Z,99071.50
2022-09-09T01:05:58.949Z,99096.94
2022-09-09T01:08:45.441Z,99098.47
2022-09-09T01:11:14.989Z,99098.16
2022-09-09T01:13:42.585Z,99099.59
2022-09-09T01:16:10.726Z,99091.31
2022-09-09T01:18:39.665Z,99099.84
2022-09-09T01:21:11.700Z,99092.66
2022-09-09T01:24:07.773Z,99106.41
2022-09-09T01:26:37.102Z,99095.97
2022-09-09T01:29:04.927Z,99047.88
2022-09-09T01:31:37.717Z,99102.06
2022-09-09T01:34:10.780Z,99095.22
2022-09-09T01:36:41.190Z,99099.78
2022-09-09T01:39:16.731Z,99105.41
2022-09-09T01:41:45.836Z,99095.13
2022-09-09T01:44:13.561Z,99084.00
2022-09-09T01:46:41.143Z,99098.16
2022-09-09T01:49:08.970Z,99096.44
2022-09-09T01:51:36.772Z,99099.25
2022-09-09T01:54:04.453Z,99097.91
2022-09-09T01:56:38.069Z,99102.59
2022-09-09T01:59:13.474Z,99092.41
2022-09-09T02:02:02.218Z,99102.00
2022-09-09T02:04:37.937Z,99097.00
2022-09-09T02:07:05.805Z,99096.16
2022-09-09T02:09:33.592Z,99090.50
2022-09-09T02:12:04.577Z,99076.78
2022-09-09T02:14:36.756Z,99091.84
2022-09-09T02:17:06.173Z,99059.84
2022-09-09T02:19:34.647Z,99089.59
2022-09-09T02:22:02.485Z,99105.34
2022-09-09T02:24:30.724Z,99109.06
2022-09-09T02:26:58.499Z,99101.84
2022-09-09T02:29:28.021Z,99104.34
2022-09-09T02:31:57.443Z,99100.84
2022-09-09T02:34:25.216Z,99094.72
2022-09-09T02:36:52.880Z,99104.84
2022-09-09T02:39:20.888Z,99102.13
2022-09-09T02:41:48.682Z,99105.41
2022-09-09T02:44:17.845Z,99114.13
2022-09-09T02:46:56.205Z,99111.38
2022-09-09T02:49:29.824Z,99047.81
2022-09-09T02:54:29.118Z,99078.50
2022-09-09T02:56:57.329Z,99101.81
2022-09-09T02:59:25.134Z,99101.09
2022-09-09T03:01:54.222Z,99093.22
2022-09-09T03:04:22.187Z,99094.25
2022-09-09T03:06:51.192Z,99092.53
2022-09-09T03:09:19.034Z,99088.00
2022-09-09T03:11:46.624Z,99091.69
2022-09-09T03:14:14.286Z,99083.97
2022-09-09T03:16:43.317Z,99084.94
2022-09-09T03:19:12.002Z,99084.13
2022-09-09T03:21:43.740Z,99079.00
2022-09-09T03:24:13.146Z,99082.56
2022-09-09T03:26:41.710Z,99071.44
2022-09-09T03:29:10.054Z,99071.75
2022-09-09T03:31:37.834Z,99080.41
2022-09-09T03:34:28.846Z,99067.56
2022-09-09T03:36:56.569Z,99078.69
2022-09-09T03:39:25.667Z,99076.88
2022-09-09T03:41:53.372Z,99073.31
2022-09-09T03:44:20.949Z,99070.50
2022-09-09T03:46:48.832Z,99061.31
2022-09-09T03:49:16.354Z,99074.16
2022-09-09T03:51:44.153Z,99082.19
2022-09-09T03:54:11.779Z,99088.34
2022-09-09T03:56:42.425Z,99075.28
2022-09-09T03:59:10.588Z,99075.28
2022-09-09T04:01:38.183Z,99069.34
2022-09-09T04:04:05.860Z,99081.34
2022-09-09T04:06:33.491Z,99080.81
2022-09-09T04:09:03.283Z,99079.63
2022-09-09T04:11:30.867Z,99077.91
2022-09-09T04:13:59.851Z,99080.41
2022-09-09T04:16:27.638Z,99086.47
2022-09-09T04:18:56.973Z,99081.34
2022-09-09T04:21:24.538Z,99079.63
2022-09-09T04:23:52.235Z,99073.47
2022-09-09T04:26:20.121Z,99081.34
2022-09-09T04:28:47.910Z,99080.22
2022-09-09T04:31:18.817Z,99079.47
2022-09-09T04:33:47.266Z,99091.63
2022-09-09T04:36:15.199Z,99080.16
2022-09-09T04:38:42.812Z,99084.59
2022-09-09T04:41:12.121Z,99059.69
2022-09-09T04:43:39.701Z,99081.69
2022-09-09T04:46:07.581Z,99084.13
2022-09-09T04:48:38.941Z,99061.66
2022-09-09T04:51:07.457Z,99087.41
2022-09-09T04:53:35.456Z,99086.38
2022-09-09T04:56:03.823Z,99080.38
2022-09-09T04:58:31.463Z,99091.00
2022-09-09T05:01:05.847Z,99095.09
2022-09-09T05:03:33.545Z,99082.69
2022-09-09T05:06:07.408Z,99088.78
2022-09-09T05:08:35.262Z,99084.00
2022-09-09T05:11:02.945Z,99091.72
2022-09-09T05:13:32.485Z,99090.25
2022-09-09T05:16:00.260Z,99091.72
2022-09-09T05:18:27.889Z,99093.41
2022-09-09T05:21:02.072Z,99090.94
2022-09-09T05:23:31.002Z,99080.22
2022-09-09T05:25:58.815Z,99085.78
2022-09-09T05:28:27.432Z,99087.41
2022-09-09T05:30:59.351Z,99076.97
2022-09-09T05:33:27.731Z,99079.38
2022-09-09T05:35:59.745Z,99075.88
2022-09-09T05:38:38.216Z,99072.25
2022-09-09T05:41:07.891Z,99079.22
2022-09-09T05:43:36.919Z,99077.31
2022-09-09T05:46:06.235Z,99073.91
2022-09-09T05:48:35.820Z,99082.63
2022-09-09T05:51:03.726Z,99085.13
2022-09-09T05:53:33.089Z,99084.34
2022-09-09T05:56:02.753Z,99083.25
2022-09-09T05:58:32.069Z,99087.78
2022-09-09T06:01:04.171Z,99093.25
2022-09-09T06:03:31.948Z,99107.44
2022-09-09T06:06:00.689Z,99099.75
2022-09-09T06:08:28.409Z,99086.13
2022-09-09T06:10:57.344Z,99102.66
2022-09-09T06:13:25.248Z,99101.88
2022-09-09T06:15:54.519Z,99103.66
2022-09-09T06:18:22.536Z,99116.00
2022-09-09T06:20:57.749Z,99103.59
2022-09-09T06:23:25.663Z,99103.75
2022-09-09T06:25:53.455Z,99105.47
2022-09-09T06:28:21.039Z,99098.53
2022-09-09T06:30:48.663Z,99109.91
2022-09-09T06:33:27.240Z,99102.81
2022-09-09T06:35:55.097Z,99099.22
2022-09-09T06:38:24.201Z,99110.31
2022-09-09T06:40:56.653Z,99104.44
2022-09-09T06:43:24.303Z,99106.72
2022-09-09T06:45:56.105Z,99105.03
2022-09-09T06:48:23.837Z,99113.34
2022-09-09T06:50:52.830Z,99113.44
2022-09-09T06:53:23.232Z,99108.91
2022-09-09T06:55:50.887Z,99143.31
2022-09-09T06:58:19.160Z,99112.06
2022-09-09T07:00:46.759Z,99115.25
2022-09-09T07:03:14.519Z,99115.16
2022-09-09T07:05:42.092Z,99113.81
2022-09-09T07:08:11.111Z,99123.03
2022-09-09T07:10:38.702Z,99131.13
2022-09-09T07:13:06.851Z,99121.78
2022-09-09T07:15:34.658Z,99133.63
2022-09-09T07:18:03.555Z,99128.75
2022-09-09T07:20:31.219Z,99129.22
2022-09-09T07:22:59.386Z,99130.31
2022-09-09T07:25:29.904Z,99123.91
2022-09-09T07:27:58.166Z,99129.81
2022-09-09T07:30:27.888Z,99138.56
2022-09-09T07:32:58.094Z,99140.50
2022-09-09T07:35:25.935Z,99142.00
2022-09-09T07:37:53.624Z,99131.47
2022-09-09T07:40:22.694Z,99149.19
2022-09-09T07:42:51.812Z,99137.16
2022-09-09T07:45:19.511Z,99134.28
2022-09-09T07:47:47.444Z,99141.81
2022-09-09T07:50:16.049Z,99134.72
2022-09-09T07:52:43.737Z,99132.31
2022-09-09T07:55:11.657Z,99141.09
2022-09-09T07:57:39.529Z,99137.16
2022-09-09T08:00:11.289Z,99140.66
2022-09-09T08:02:38.965Z,99139.38
2022-09-09T08:05:07.037Z,99145.72
2022-09-09T08:07:35.270Z,99136.25
2022-09-09T08:10:02.975Z,99146.31
2022-09-09T08:12:30.628Z,99157.09
2022-09-09T08:14:58.251Z,99135.28
2022-09-09T08:17:27.779Z,99148.41
2022-09-09T08:19:56.097Z,99122.00
2022-09-09T08:22:25.445Z,99137.63
2022-09-09T08:24:56.616Z,99107.16
2022-09-09T08:27:25.166Z,99153.69
2022-09-09T08:29:53.063Z,99138.06
2022-09-09T08:32:20.977Z,99155.25
2022-09-09T08:34:54.633Z,99145.09
2022-09-09T08:37:22.534Z,99143.72
2022-09-09T08:39:53.964Z,99144.91
2022-09-09T08:42:40.369Z,99142.97
2022-09-09T08:45:24.081Z,99143.19
2022-09-09T08:47:58.024Z,99143.19
2022-09-09T08:50:28.907Z,99106.13
2022-09-09T08:52:59.371Z,99145.13
2022-09-09T08:55:30.832Z,99130.00
2022-09-09T08:58:01.885Z,99158.50
2022-09-09T09:00:36.343Z,99141.59
2022-09-09T09:03:10.160Z,99132.84
2022-09-09T09:05:42.304Z,99130.34
2022-09-09T09:08:13.522Z,99154.31
2022-09-09T09:10:47.824Z,99143.13
2022-09-09T09:13:21.969Z,99168.97
2022-09-09T09:15:52.450Z,99158.84
2022-09-09T09:18:20.680Z,99157.81
2022-09-09T09:21:00.582Z,99178.38
2022-09-09T09:23:36.484Z,99155.47
2022-09-09T09:26:31.451Z,99176.28
2022-09-09T09:28:59.122Z,99178.22
2022-09-09T09:31:28.028Z,99131.53
2022-09-09T09:33:56.213Z,99165.28
2022-09-09T09:36:27.105Z,99146.88
2022-09-09T09:41:44.715Z,99125.25
2022-09-09T09:44:24.500Z,99128.31
2022-09-09T09:46:52.152Z,99155.69
2022-09-09T09:49:20.001Z,99155.69
2022-09-09T09:51:49.051Z,99158.25
2022-09-09T09:54:21.418Z,99157.31
2022-09-09T09:56:51.652Z,99169.09
2022-09-09T09:59:38.824Z,99110.69
2022-09-09T10:02:18.321Z,99139.53
2022-09-09T10:04:47.319Z,99165.81
2022-09-09T10:07:20.028Z,99163.19
2022-09-09T10:09:48.507Z,99142.34
2022-09-09T10:12:22.046Z,99123.78
2022-09-09T10:14:53.425Z,99182.03
2022-09-09T10:17:24.421Z,99114.38
2022-09-09T10:19:59.910Z,99158.97
2022-09-09T10:22:29.411Z,99157.88
2022-09-09T10:25:07.074Z,99139.31
2022-09-09T10:27:39.004Z,99161.06
2022-09-09T10:30:11.888Z,99158.06
2022-09-09T10:32:43.883Z,99148.59
2022-09-09T10:35:14.202Z,99161.31
2022-09-09T10:38:11.874Z,99149.31
2022-09-09T10:40:41.331Z,99150.53
2022-09-09T10:43:15.404Z,99144.75
2022-09-09T10:45:49.400Z,99151.81
2022-09-09T10:48:25.453Z,99135.44
2022-09-09T10:51:03.571Z,99141.94
2022-09-09T10:53:39.747Z,99139.59
2022-09-09T10:56:09.099Z,99082.16
2022-09-09T10:58:40.102Z,99126.50
2022-09-09T11:01:11.989Z,99120.13
2022-09-09T11:03:43.118Z,99138.25
2022-09-09T11:06:31.127Z,99095.63
2022-09-09T11:09:00.927Z,99112.47
2022-09-09T11:11:48.958Z,99132.72
2022-09-09T11:14:19.947Z,99121.25
2022-09-09T11:16:50.087Z,99147.63
2022-09-09T11:19:22.239Z,99099.09
2022-09-09T11:21:50.706Z,99126.72
2022-09-09T11:24:23.660Z,99133.50
2022-09-09T11:26:53.535Z,99124.00
2022-09-09T11:29:53.417Z,99151.84
2022-09-09T11:32:42.148Z,99130.84
2022-09-09T11:35:19.873Z,99121.69
2022-09-09T11:37:56.613Z,99131.44
2022-09-09T11:40:27.125Z,99118.69
2022-09-09T11:43:05.356Z,99121.66
2022-09-09T11:45:33.222Z,99125.75
2022-09-09T11:48:01.864Z,99108.94
2022-09-09T11:50:32.022Z,99086.63
2022-09-09T11:53:24.544Z,99145.44
2022-09-09T11:56:13.954Z,99123.13
2022-09-09T11:58:43.579Z,99092.16
2022-09-09T12:01:39.851Z,99149.25
2022-09-09T12:04:28.847Z,99140.78
2022-09-09T12:06:58.534Z,99142.03
2022-09-09T12:09:30.104Z,99137.34
2022-09-09T12:12:23.555Z,99134.03
2022-09-09T12:15:21.689Z,99126.78
2022-09-09T12:17:51.389Z,99109.03
2022-09-09T12:20:20.590Z,99125.25
2022-09-09T12:22:58.737Z,99122.97
2022-09-09T12:25:31.567Z,99091.78
2022-09-09T12:28:07.633Z,99126.81
2022-09-09T12:30:37.824Z,99091.78
2022-09-09T12:33:10.939Z,99127.69
2022-09-09T12:35:39.630Z,99127.81
2022-09-09T12:38:12.224Z,99128.28
2022-09-09T12:40:40.572Z,99126.78
2022-09-09T12:43:20.763Z,99089.22
2022-09-09T12:45:49.725Z,99125.41
2022-09-09T12:48:17.896Z,99088.75
2022-09-09T12:50:47.239Z,99133.47
2022-09-09T12:53:26.137Z,99130.44
2022-09-09T12:55:55.087Z,99128.91
2022-09-09T12:58:24.104Z,99123.81
2022-09-09T13:00:53.178Z,99116.47
2022-09-09T13:03:22.194Z,99090.66
2022-09-09T13:05:50.054Z,99118.28
2022-09-09T13:08:21.393Z,99123.28
2022-09-09T13:10:53.654Z,99079.59
2022-09-09T13:13:25.664Z,99104.09
2022-09-09T13:15:54.708Z,99074.47
2022-09-09T13:18:23.993Z,99111.22
2022-09-09T13:20:52.128Z,99108.03
2022-09-09T13:23:20.618Z,99103.66
2022-09-09T13:25:55.638Z,99151.34
2022-09-09T13:28:26.506Z,99157.63
2022-09-09T13:31:03.315Z,99158.13
2022-09-09T13:33:33.078Z,99157.41
2022-09-09T13:36:01.636Z,99152.41
2022-09-09T13:38:29.862Z,99127.53
2022-09-09T13:41:04.210Z,99134.69
2022-09-09T13:43:34.201Z,99125.47
2022-09-09T13:46:03.269Z,99131.84
2022-09-09T13:48:36.999Z,99121.00
2022-09-09T13:51:06.160Z,99129.06
2022-09-09T13:53:34.044Z,99118.44
2022-09-09T13:56:02.601Z,99112.41
2022-09-09T13:58:30.887Z,99117.34
2022-09-09T14:01:00.166Z,99111.31
2022-09-09T14:03:27.922Z,99095.41
2022-09-09T14:05:55.774Z,99094.63
2022-09-09T14:08:26.281Z,99067.03
2022-09-09T14:10:59.276Z,99093.94
2022-09-09T14:13:26.999Z,99076.44
2022-09-09T14:15:54.654Z,99082.63
2022-09-09T14:18:26.244Z,99082.41
2022-09-09T14:20:54.177Z,99080.69
2022-09-09T14:23:22.972Z,99082.00
2022-09-09T14:25:50.983Z,99099.53
2022-09-09T14:28:20.477Z,99093.91
2022-09-09T14:30:53.704Z,99097.75
2022-09-09T14:33:22.817Z,99102.66
2022-09-09T14:35:50.446Z,99100.91
2022-09-09T14:38:19.303Z,99093.00
2022-09-09T14:40:47.792Z,99034.56
2022-09-09T14:43:15.756Z,99085.00
2022-09-09T14:45:44.309Z,99088.34
2022-09-09T14:48:11.933Z,99089.03
2022-09-09T14:50:40.976Z,99096.13
2022-09-09T14:53:09.611Z,99081.94
2022-09-09T14:55:37.471Z,99098.84
2022-09-09T14:58:05.366Z,99095.44
2022-09-09T15:00:33.008Z,99078.84
2022-09-09T15:03:00.674Z,99085.75
2022-09-09T15:05:29.443Z,99098.53
2022-09-09T15:07:59.495Z,99103.66
2022-09-09T15:10:27.460Z,99097.38
2022-09-09T15:12:55.125Z,99098.44
2022-09-09T15:15:22.708Z,99101.78
2022-09-09T15:17:50.353Z,99122.47
2022-09-09T15:20:18.183Z,99152.69
2022-09-09T15:22:45.825Z,99171.50
2022-09-09T15:25:14.975Z,99157.13
2022-09-09T15:27:42.594Z,99160.38
2022-09-09T15:30:11.549Z,99132.63
2022-09-09T15:32:40.602Z,99169.59
2022-09-09T15:35:21.262Z,99169.59
2022-09-09T15:37:49.032Z,99164.94
2022-09-09T15:40:18.060Z,99163.91
2022-09-09T15:42:47.135Z,99160.31
2022-09-09T15:45:16.112Z,99157.28
2022-09-09T15:47:44.508Z,99141.19
2022-09-09T15:50:12.752Z,99137.09
2022-09-09T15:52:40.513Z,99144.44
2022-09-09T15:55:09.176Z,99136.84
2022-09-09T15:57:38.203Z,99128.59
2022-09-09T16:00:07.096Z,99123.06
2022-09-09T16:02:35.073Z,99124.41
2022-09-09T16:05:03.136Z,99118.22
2022-09-09T16:07:30.792Z,99119.25
2022-09-09T16:09:58.441Z,99128.00
2022-09-09T16:12:27.169Z,99128.97
2022-09-09T16:14:56.783Z,99133.72
2022-09-09T16:17:24.424Z,99137.53
2022-09-09T16:19:56.171Z,99150.31
2022-09-09T16:22:24.687Z,99155.75
2022-09-09T16:24:52.468Z,99158.69
2022-09-09T16:27:20.182Z,99156.38
2022-09-09T16:29:47.955Z,99149.34
2022-09-09T16:32:17.361Z,99159.72
2022-09-09T16:34:46.780Z,99151.44
2022-09-09T16:37:14.469Z,99144.13
2022-09-09T16:39:42.202Z,99144.78
2022-09-09T16:42:10.660Z,99142.72
2022-09-09T16:44:38.455Z,99141.84
2022-09-09T16:47:06.505Z,99113.56
2022-09-09T16:52:03.713Z,99144.13
2022-09-09T16:54:31.605Z,99148.41
2022-09-09T16:56:59.565Z,99152.69
2022-09-09T16:59:29.768Z,99156.97
2022-09-09T17:01:57.517Z,99154.13
2022-09-09T17:04:28.685Z,99152.34
2022-09-09T17:06:56.757Z,99124.06
2022-09-09T17:09:29.637Z,99146.63
2022-09-09T17:11:57.263Z,99157.16
2022-09-09T17:14:25.369Z,99160.75
2022-09-09T17:16:53.166Z,99170.44
2022-09-09T17:19:20.922Z,99157.34
2022-09-09T17:22:14.805Z,99155.63
2022-09-09T17:24:39.494Z,99164.56
2022-09-09T17:27:07.390Z,99166.47
2022-09-09T17:29:36.938Z,99160.63
2022-09-09T17:32:06.304Z,99158.25
2022-09-09T17:34:34.087Z,99155.94
2022-09-09T17:37:01.846Z,99167.78
2022-09-09T17:39:29.855Z,99168.16
2022-09-09T17:41:58.915Z,99165.84
2022-09-09T17:44:27.249Z,99159.69
2022-09-09T17:46:55.432Z,99166.97
2022-09-09T17:49:23.120Z,99162.78
2022-09-09T17:51:50.733Z,99167.78
2022-09-09T17:54:19.193Z,99154.06
2022-09-09T17:56:47.814Z,99149.28
2022-09-09T17:59:17.593Z,99169.16
2022-09-09T18:01:45.975Z,99169.34
2022-09-09T18:04:14.976Z,99166.19
2022-09-09T18:06:43.750Z,99177.22
2022-09-09T18:09:13.174Z,99176.16
2022-09-09T18:11:43.878Z,99186.34
2022-09-09T18:14:12.605Z,99177.66
2022-09-09T18:16:41.674Z,99196.84
2022-09-09T18:19:13.615Z,99202.03
2022-09-09T18:21:41.840Z,99192.22
2022-09-09T18:24:10.566Z,99188.41
2022-09-09T18:26:39.236Z,99198.00
2022-09-09T18:29:07.758Z,99189.13
2022-09-09T18:31:35.627Z,99200.34
2022-09-09T18:34:05.045Z,99205.88
2022-09-09T18:36:35.113Z,99163.38
2022-09-09T18:39:03.526Z,99204.28
2022-09-09T18:41:32.380Z,99207.88
2022-09-09T18:44:00.498Z,99204.34
2022-09-09T18:46:28.978Z,99208.00
2022-09-09T18:48:57.016Z,99214.25
2022-09-09T18:51:27.392Z,99191.94
2022-09-09T18:53:56.937Z,99224.91
2022-09-09T18:56:24.719Z,99195.19
2022-09-09T18:58:53.238Z,99210.16
2022-09-09T19:01:20.877Z,99223.28
2022-09-09T19:03:48.843Z,99228.41
2022-09-09T19:06:17.627Z,99223.78
2022-09-09T19:08:48.513Z,99219.31
2022-09-09T19:11:19.865Z,99185.28
2022-09-09T19:13:51.327Z,99228.16
2022-09-09T19:16:19.338Z,99231.09
2022-09-09T19:18:48.247Z,99231.94
2022-09-09T19:21:18.272Z,99228.44
2022-09-09T19:23:47.535Z,99226.72
2022-09-09T19:26:17.034Z,99226.88
2022-09-09T19:28:45.806Z,99234.69
2022-09-09T19:31:15.533Z,99229.44
2022-09-09T19:33:45.436Z,99225.31
2022-09-09T19:36:13.140Z,99180.31
2022-09-09T19:38:42.763Z,99245.28
2022-09-09T19:41:13.600Z,99235.97
2022-09-09T19:43:41.267Z,99239.50
2022-09-09T19:46:11.452Z,99220.78
2022-09-09T19:48:40.615Z,99240.66
2022-09-09T19:51:09.278Z,99212.66
2022-09-09T19:53:38.669Z,99241.59
2022-09-09T19:56:09.400Z,99246.69
2022-09-09T19:58:39.926Z,99227.16
2022-09-09T20:01:10.517Z,99246.28
2022-09-09T20:03:39.136Z,99250.63
2022-09-09T20:06:07.392Z,99253.16
2022-09-09T20:08:35.474Z,99255.75
2022-09-09T20:11:03.487Z,99254.56
2022-09-09T20:13:31.972Z,99259.03
2022-09-09T20:16:01.847Z,99265.19
2022-09-09T20:18:31.166Z,99266.53
2022-09-09T20:21:00.828Z,99209.31
2022-09-09T20:23:29.089Z,99260.41
2022-09-09T20:25:57.139Z,99304.97
2022-09-09T20:28:27.466Z,99042.63
2022-09-09T20:30:55.364Z,99137.72
2022-09-09T20:33:25.603Z,99283.03
2022-09-09T20:35:54.049Z,99170.97
2022-09-09T20:38:23.246Z,99372.25
2022-09-09T20:40:52.237Z,99128.47
2022-09-09T20:43:23.669Z,99274.16
2022-09-09T20:45:53.792Z,99359.38
2022-09-09T20:48:22.009Z,99278.97
2022-09-09T20:50:54.132Z,99005.53
2022-09-09T20:53:23.172Z,99028.03
2022-09-09T20:55:51.768Z,99017.00
2022-09-09T20:58:19.901Z,99280.69
2022-09-09T21:00:49.244Z,99388.56
2022-09-09T21:03:17.610Z,98978.44
2022-09-09T21:05:45.448Z,99273.59
2022-09-09T21:08:14.986Z,99231.84
2022-09-09T21:10:46.942Z,99079.19
2022-09-09T21:13:14.833Z,99393.78
2022-09-09T21:15:42.677Z,99036.16
2022-09-09T21:18:11.225Z,99148.34
2022-09-09T21:20:39.182Z,98969.38
2022-09-09T21:23:07.682Z,99246.00
2022-09-09T21:25:37.162Z,98921.84
2022-09-09T21:28:05.847Z,99121.47
2022-09-09T21:30:41.873Z,98860.09
2022-09-09T21:33:11.612Z,99061.91
2022-09-09T21:35:40.016Z,99061.56
2022-09-09T21:38:07.902Z,99002.59
2022-09-09T21:40:39.355Z,99124.50
2022-09-09T21:43:08.307Z,99251.09
2022-09-09T21:45:36.120Z,99277.50
2022-09-09T21:48:07.241Z,99221.03
2022-09-09T21:50:37.244Z,99150.44
2022-09-09T21:53:05.083Z,99119.53
2022-09-09T21:55:43.330Z,99151.47
2022-09-09T21:58:11.636Z,99139.00
2022-09-09T22:00:42.342Z,99188.19
2022-09-09T22:03:10.309Z,99352.81
2022-09-09T22:05:40.966Z,99303.72
2022-09-09T22:08:09.140Z,99282.56
2022-09-09T22:10:38.072Z,98917.28
2022-09-09T22:13:07.368Z,99231.28
2022-09-09T22:15:37.337Z,99231.91
2022-09-09T22:18:05.830Z,99215.25
2022-09-09T22:20:34.293Z,99207.16
2022-09-09T22:23:02.330Z,99165.03
2022-09-09T22:25:38.076Z,99283.16
2022-09-09T22:28:08.230Z,99205.28
2022-09-09T22:30:37.949Z,99138.34
2022-09-09T22:33:06.148Z,99266.00
2022-09-09T22:35:34.072Z,99230.78
2022-09-09T22:38:02.188Z,99238.38
2022-09-09T22:40:30.055Z,99308.91
2022-09-09T22:42:57.949Z,99252.94
2022-09-09T22:45:45.486Z,99054.22
2022-09-09T22:48:13.339Z,99255.13
2022-09-09T22:53:15.868Z,99281.75
2022-09-09T22:55:43.583Z,99288.72
2022-09-09T22:58:11.739Z,99284.28
2022-09-09T23:00:40.121Z,99286.34
2022-09-09T23:03:09.098Z,99282.63
2022-09-09T23:05:38.492Z,99283.41
2022-09-09T23:08:06.256Z,99290.34
2022-09-09T23:10:34.056Z,99278.69
2022-09-09T23:13:01.681Z,99207.75
2022-09-09T23:15:31.370Z,99290.88
2022-09-09T23:17:59.023Z,99288.03
2022-09-09T23:20:28.195Z,99290.69
2022-09-09T23:22:55.889Z,99309.84
2022-09-09T23:25:23.829Z,99289.75
2022-09-09T23:27:51.479Z,99293.13
2022-09-09T23:30:20.419Z,99301.00
2022-09-09T23:32:49.713Z,99285.31
2022-09-09T23:35:17.519Z,99299.19
2022-09-09T23:37:46.625Z,99300.91
2022-09-09T23:40:14.392Z,99301.00
2022-09-09T23:42:42.161Z,99299.28
2022-09-09T23:45:11.120Z,99298.41
2022-09-09T23:47:38.910Z,99286.13
2022-09-09T23:50:08.336Z,99296.16
2022-09-09T23:52:36.982Z,99176.94
2022-09-09T23:55:08.643Z,99292.03
2022-09-09T23:57:36.244Z,99292.88
